KUKT/UKT METAR and TAF weather

Enter ICAO airport designator
Station Type Date Time Source
KUKT METAR 2019/11/18 04:15 UTC NOAA

KUKT 180415Z AUTO 03005G11KT 10SM OVC039 02/M03 A3002 RMK A01


Station Type Date Time Source
KUKT Decoded METAR 2019/11/18 04:15 UTC NOAA

Quakertown, Quakertown Airport, PA, United States (KUKT) 40-26-06N 075-22-54W
Nov 17, 2019 - 11:15 PM EST / 2019.11.18 0415 UTC
Wind: from the NNE (030 degrees) at 6 MPH (5 KT) gusting to 13 MPH (11 KT):0
Visibility: 10 mile(s):0
Sky conditions: overcast
Temperature: 35 F (2 C)
Windchill: 30 F (-1 C):1
Dew Point: 26 F (-3 C)
Relative Humidity: 69%
Pressure (altimeter): 30.02 in. Hg (1016 hPa)
ob: KUKT 180415Z AUTO 03005G11KT 10SM OVC039 02/M03 A3002 RMK A01
cycle: 4

Station Type Date Time Source
KUKT TAF UTC NOAA

Error!

Example: see airport list